createdAt,value
2024-02-02T00:01:12.966Z,9.60
2024-02-02T00:03:40.053Z,8.43
2024-02-02T00:06:07.133Z,8.57
2024-02-02T00:08:33.936Z,8.02
2024-02-02T00:11:01.413Z,7.65
2024-02-02T00:13:28.750Z,8.50
2024-02-02T00:15:55.995Z,8.93
2024-02-02T00:18:22.974Z,8.73
2024-02-02T00:20:50.052Z,6.82
2024-02-02T00:23:17.100Z,6.43
2024-02-02T00:25:43.934Z,8.18
2024-02-02T00:28:10.740Z,8.90
2024-02-02T00:30:38.475Z,6.22
2024-02-02T00:33:07.372Z,8.10
2024-02-02T00:35:34.427Z,7.15
2024-02-02T00:38:01.333Z,5.95
2024-02-02T00:40:30.306Z,5.60
2024-02-02T00:42:57.275Z,5.03
2024-02-02T00:45:24.994Z,5.28
2024-02-02T00:47:52.010Z,4.90
2024-02-02T00:50:19.043Z,4.60
2024-02-02T00:52:46.006Z,5.45
2024-02-02T00:55:12.889Z,3.53
2024-02-02T00:57:39.881Z,5.70
2024-02-02T01:00:11.348Z,6.78
2024-02-02T01:02:40.215Z,3.55
2024-02-02T01:05:07.420Z,4.55
2024-02-02T01:07:35.831Z,4.00
2024-02-02T01:10:02.830Z,4.43
2024-02-02T01:12:29.776Z,4.35
2024-02-02T01:14:56.995Z,3.53
2024-02-02T01:17:24.312Z,4.45
2024-02-02T01:19:51.251Z,5.25
2024-02-02T01:22:18.104Z,6.22
2024-02-02T01:24:45.106Z,3.05
2024-02-02T01:27:11.923Z,4.15
2024-02-02T01:29:38.823Z,5.65
2024-02-02T01:32:06.194Z,6.00
2024-02-02T01:34:33.204Z,6.35
2024-02-02T01:37:00.129Z,5.75
2024-02-02T01:39:27.503Z,5.78
2024-02-02T01:41:55.005Z,4.40
2024-02-02T01:44:21.934Z,7.68
2024-02-02T01:46:49.003Z,5.47
2024-02-02T01:49:16.206Z,4.55
2024-02-02T01:51:43.234Z,7.05
2024-02-02T01:54:10.783Z,3.88
2024-02-02T01:56:37.799Z,5.32
2024-02-02T01:59:06.171Z,5.72
2024-02-02T02:01:33.378Z,3.92
2024-02-02T02:04:01.093Z,4.18
2024-02-02T02:06:28.218Z,5.35
2024-02-02T02:08:55.399Z,8.25
2024-02-02T02:11:22.432Z,9.40
2024-02-02T02:13:49.647Z,6.35
2024-02-02T02:16:16.680Z,4.57
2024-02-02T02:18:52.461Z,5.32
2024-02-02T02:21:27.452Z,4.80
2024-02-02T02:23:55.110Z,3.97
2024-02-02T02:26:22.866Z,4.13
2024-02-02T02:28:50.317Z,5.22
2024-02-02T02:31:18.042Z,4.85
2024-02-02T02:33:45.901Z,6.55
2024-02-02T02:36:15.264Z,5.00
2024-02-02T02:38:44.173Z,5.30
2024-02-02T02:41:11.297Z,6.50
2024-02-02T02:43:38.181Z,5.68
2024-02-02T02:46:05.483Z,5.35
2024-02-02T02:48:32.482Z,4.32
2024-02-02T02:50:59.444Z,4.30
2024-02-02T02:53:26.516Z,4.88
2024-02-02T02:55:53.658Z,4.10
2024-02-02T02:58:20.558Z,3.63
2024-02-02T03:00:47.550Z,4.95
2024-02-02T03:03:14.431Z,3.80
2024-02-02T03:05:41.579Z,5.68
2024-02-02T03:08:08.926Z,4.93
2024-02-02T03:10:35.977Z,5.07
2024-02-02T03:13:02.967Z,3.58
2024-02-02T03:15:33.072Z,6.60
2024-02-02T03:18:01.512Z,3.85
2024-02-02T03:20:28.451Z,4.13
2024-02-02T03:22:56.644Z,4.72
2024-02-02T03:25:23.744Z,5.18
2024-02-02T03:27:50.593Z,4.35
2024-02-02T03:30:17.540Z,4.72
2024-02-02T03:32:45.848Z,5.25
2024-02-02T03:35:13.577Z,4.07
2024-02-02T03:37:40.438Z,4.70
2024-02-02T03:40:07.883Z,4.75
2024-02-02T03:42:34.914Z,5.35
2024-02-02T03:45:01.882Z,4.00
2024-02-02T03:47:28.832Z,4.25
2024-02-02T03:49:55.718Z,4.80
2024-02-02T03:52:24.825Z,4.55
2024-02-02T03:54:52.283Z,5.47
2024-02-02T03:57:19.794Z,3.30
2024-02-02T03:59:46.854Z,6.05
2024-02-02T04:02:14.029Z,5.38
2024-02-02T04:04:40.879Z,5.00
2024-02-02T04:07:07.748Z,4.15
2024-02-02T04:09:34.775Z,3.90
2024-02-02T04:12:01.943Z,6.13
2024-02-02T04:14:28.903Z,5.35
2024-02-02T04:16:55.717Z,6.32
2024-02-02T04:19:23.059Z,6.05
2024-02-02T04:21:50.091Z,6.90
2024-02-02T04:24:18.061Z,7.72
2024-02-02T04:26:44.969Z,11.50
2024-02-02T04:29:12.260Z,8.30
2024-02-02T04:31:39.088Z,9.98
2024-02-02T04:34:07.191Z,10.18
2024-02-02T04:36:34.781Z,9.77
2024-02-02T04:39:01.753Z,13.25
2024-02-02T04:41:28.712Z,15.05
2024-02-02T04:43:55.643Z,9.40
2024-02-02T04:46:22.687Z,7.32
2024-02-02T04:48:49.614Z,5.88
2024-02-02T04:51:16.619Z,10.38
2024-02-02T04:53:43.516Z,9.98
2024-02-02T04:56:10.504Z,13.23
2024-02-02T04:58:37.318Z,14.23
2024-02-02T05:01:04.608Z,13.60
2024-02-02T05:03:33.126Z,15.77
2024-02-02T05:06:00.045Z,17.15
2024-02-02T05:08:27.028Z,14.73
2024-02-02T05:10:53.827Z,14.95
2024-02-02T05:13:20.612Z,17.20
2024-02-02T05:15:47.462Z,19.90
2024-02-02T05:18:15.418Z,15.18
2024-02-02T05:20:42.421Z,14.52
2024-02-02T05:23:09.414Z,14.82
2024-02-02T05:25:36.883Z,13.05
2024-02-02T05:28:05.182Z,13.93
2024-02-02T05:30:33.969Z,13.40
2024-02-02T05:33:01.041Z,17.67
2024-02-02T05:35:28.537Z,12.98
2024-02-02T05:37:55.376Z,10.77
2024-02-02T05:40:22.245Z,11.38
2024-02-02T05:42:49.251Z,9.73
2024-02-02T05:45:16.207Z,8.30
2024-02-02T05:47:43.239Z,10.80
2024-02-02T05:50:10.547Z,6.43
2024-02-02T05:52:37.411Z,5.13
2024-02-02T05:55:04.479Z,6.35
2024-02-02T05:57:31.342Z,10.10
2024-02-02T05:59:58.256Z,8.40
2024-02-02T06:02:25.061Z,8.23
2024-02-02T06:04:52.343Z,9.98
2024-02-02T06:07:19.510Z,10.48
2024-02-02T06:09:46.623Z,9.93
2024-02-02T06:12:13.541Z,9.27
2024-02-02T06:14:41.055Z,7.38
2024-02-02T06:17:10.308Z,6.60
2024-02-02T06:19:37.516Z,6.15
2024-02-02T06:22:04.405Z,9.13
2024-02-02T06:24:31.389Z,7.90
2024-02-02T06:26:58.343Z,6.72
2024-02-02T06:29:27.334Z,7.43
2024-02-02T06:31:55.942Z,6.90
2024-02-02T06:34:22.897Z,8.40
2024-02-02T06:36:49.840Z,10.55
2024-02-02T06:39:16.925Z,10.07
2024-02-02T06:41:43.828Z,8.50
2024-02-02T06:44:10.681Z,11.68
2024-02-02T06:46:37.525Z,8.57
2024-02-02T06:49:04.659Z,12.90
2024-02-02T06:51:31.636Z,15.25
2024-02-02T06:53:58.565Z,12.82
2024-02-02T06:56:32.634Z,11.93
2024-02-02T06:58:59.682Z,12.45
2024-02-02T07:01:27.261Z,9.13
2024-02-02T07:03:54.466Z,11.55
2024-02-02T07:06:21.998Z,7.90
2024-02-02T07:08:49.141Z,9.75
2024-02-02T07:12:05.452Z,6.72
2024-02-02T07:14:48.786Z,7.63
2024-02-02T07:17:22.030Z,5.68
2024-02-02T07:19:49.284Z,10.05
2024-02-02T07:22:45.667Z,12.45
2024-02-02T07:25:13.978Z,11.20
2024-02-02T07:27:40.780Z,6.65
2024-02-02T07:30:14.608Z,9.45
2024-02-02T07:32:41.603Z,9.90
2024-02-02T07:35:34.638Z,12.55
2024-02-02T07:38:07.688Z,8.32
2024-02-02T07:40:59.390Z,7.35
2024-02-02T07:43:26.228Z,8.07
2024-02-02T07:45:53.040Z,8.05
2024-02-02T07:48:20.833Z,9.57
2024-02-02T07:50:47.732Z,6.30
2024-02-02T07:53:14.865Z,5.97
2024-02-02T07:55:41.607Z,6.60
2024-02-02T07:58:08.437Z,12.73
2024-02-02T08:00:35.338Z,13.07
2024-02-02T08:03:02.775Z,12.02
2024-02-02T08:05:29.941Z,11.38
2024-02-02T08:07:56.784Z,8.77
2024-02-02T08:10:23.573Z,7.97
2024-02-02T08:12:50.368Z,7.03
2024-02-02T08:15:18.634Z,4.78
2024-02-02T08:17:46.464Z,8.88
2024-02-02T08:20:14.245Z,7.78
2024-02-02T08:22:41.154Z,5.18
2024-02-02T08:25:08.244Z,5.30
2024-02-02T08:27:35.071Z,5.10
2024-02-02T08:30:02.209Z,8.60
2024-02-02T08:32:31.064Z,5.57
2024-02-02T08:34:59.840Z,6.70
2024-02-02T08:37:26.866Z,5.85
2024-02-02T08:39:54.092Z,6.70
2024-02-02T08:42:24.748Z,5.13
2024-02-02T08:44:56.856Z,7.95
2024-02-02T08:47:24.954Z,13.75
2024-02-02T08:50:00.811Z,9.45
2024-02-02T08:52:35.697Z,8.73
2024-02-02T08:55:07.781Z,5.85
2024-02-02T08:57:37.954Z,9.00
2024-02-02T09:00:17.550Z,8.88
2024-02-02T09:02:52.623Z,10.48
2024-02-02T09:05:20.392Z,10.68
2024-02-02T09:08:13.410Z,9.98
2024-02-02T09:10:44.174Z,9.30
2024-02-02T09:13:24.306Z,8.20
2024-02-02T09:15:51.657Z,13.75
2024-02-02T09:18:35.329Z,10.43
2024-02-02T09:21:04.604Z,10.20
2024-02-02T09:23:36.377Z,13.95
2024-02-02T09:26:16.400Z,11.60
2024-02-02T09:28:47.061Z,13.20
2024-02-02T09:31:24.067Z,14.07
2024-02-02T09:33:52.636Z,14.18
2024-02-02T09:36:25.920Z,12.82
2024-02-02T09:38:58.671Z,14.13
2024-02-02T09:41:47.729Z,13.60
2024-02-02T09:44:36.099Z,14.35
2024-02-02T09:47:20.508Z,12.50
2024-02-02T09:50:15.229Z,12.27
2024-02-02T09:53:00.031Z,7.43
2024-02-02T09:56:08.417Z,11.80
2024-02-02T09:59:02.033Z,9.07
2024-02-02T10:02:18.227Z,8.80
2024-02-02T10:07:34.559Z,10.93
2024-02-02T10:10:46.362Z,10.85
2024-02-02T10:13:39.352Z,12.25
2024-02-02T10:16:21.267Z,8.82
2024-02-02T10:19:29.271Z,9.70
2024-02-02T10:22:07.931Z,12.70
2024-02-02T10:24:58.922Z,12.98
2024-02-02T10:27:55.489Z,9.77
2024-02-02T10:30:50.135Z,10.27
2024-02-02T10:33:43.590Z,9.10
2024-02-02T10:36:22.468Z,13.73
2024-02-02T10:39:31.668Z,10.68
2024-02-02T10:42:17.451Z,13.05
2024-02-02T10:44:59.491Z,11.20
2024-02-02T10:47:38.870Z,10.25
2024-02-02T10:50:33.300Z,12.75
2024-02-02T10:53:09.672Z,11.52
2024-02-02T10:55:51.174Z,10.75
2024-02-02T10:58:34.054Z,10.27
2024-02-02T11:01:23.658Z,11.25
2024-02-02T11:04:05.666Z,9.82
2024-02-02T11:06:46.410Z,9.50
2024-02-02T11:09:25.181Z,12.93
2024-02-02T11:12:06.011Z,13.65
2024-02-02T11:14:58.631Z,8.57
2024-02-02T11:17:39.225Z,9.43
2024-02-02T11:20:20.559Z,10.45
2024-02-02T11:22:55.601Z,10.52
2024-02-02T11:25:34.102Z,10.95
2024-02-02T11:28:09.826Z,8.25
2024-02-02T11:31:00.727Z,8.55
2024-02-02T11:33:36.615Z,9.63
2024-02-02T11:36:09.020Z,9.90
2024-02-02T11:38:52.007Z,10.43
2024-02-02T11:41:26.377Z,11.05
2024-02-02T11:43:57.217Z,8.38
2024-02-02T11:46:28.126Z,8.43
2024-02-02T11:49:07.112Z,7.80
2024-02-02T11:51:39.216Z,7.93
2024-02-02T11:54:17.252Z,10.73
2024-02-02T11:56:46.171Z,10.48
2024-02-02T11:59:20.937Z,7.90
2024-02-02T12:02:06.682Z,11.02
2024-02-02T12:04:41.683Z,9.60
2024-02-02T12:07:17.906Z,8.93
2024-02-02T12:09:49.301Z,11.32
2024-02-02T12:12:34.581Z,8.05
2024-02-02T12:15:02.416Z,9.30
2024-02-02T12:17:30.663Z,10.23
2024-02-02T12:20:01.132Z,11.63
2024-02-02T12:22:30.235Z,10.45
2024-02-02T12:24:57.245Z,11.10
2024-02-02T12:27:24.095Z,11.40
2024-02-02T12:29:51.348Z,5.63
2024-02-02T12:32:18.303Z,9.55
2024-02-02T12:34:46.595Z,10.57
2024-02-02T12:37:13.678Z,8.77
2024-02-02T12:39:40.722Z,11.10
2024-02-02T12:42:08.084Z,9.85
2024-02-02T12:44:35.019Z,9.90
2024-02-02T12:47:05.411Z,14.32
2024-02-02T12:49:32.777Z,11.02
2024-02-02T12:52:01.014Z,9.57
2024-02-02T12:54:28.026Z,10.95
2024-02-02T12:56:55.289Z,10.68
2024-02-02T12:59:24.434Z,10.38
2024-02-02T13:01:51.726Z,11.57
2024-02-02T13:04:20.217Z,10.98
2024-02-02T13:06:47.522Z,9.90
2024-02-02T13:09:25.530Z,8.18
2024-02-02T13:11:59.067Z,13.13
2024-02-02T13:14:29.191Z,8.07
2024-02-02T13:17:12.434Z,10.27
2024-02-02T13:19:48.836Z,13.13
2024-02-02T13:22:27.780Z,12.10
2024-02-02T13:24:58.079Z,10.30
2024-02-02T13:27:30.653Z,10.23
2024-02-02T13:29:59.706Z,10.75
2024-02-02T13:32:28.449Z,14.50
2024-02-02T13:35:00.277Z,10.25
2024-02-02T13:37:31.021Z,10.05
2024-02-02T13:40:00.103Z,10.43
2024-02-02T13:42:27.942Z,8.65
2024-02-02T13:44:54.794Z,11.02
2024-02-02T13:47:21.986Z,11.90
2024-02-02T13:49:54.089Z,8.45
2024-02-02T13:52:21.021Z,10.32
2024-02-02T13:54:53.790Z,9.35
2024-02-02T13:57:20.978Z,11.57
2024-02-02T13:59:47.985Z,9.25
2024-02-02T14:02:14.853Z,11.65
2024-02-02T14:04:43.199Z,10.00
2024-02-02T14:07:17.261Z,9.40
2024-02-02T14:09:44.318Z,8.88
2024-02-02T14:12:12.162Z,8.52
2024-02-02T14:14:39.317Z,11.07
2024-02-02T14:17:07.184Z,10.00
2024-02-02T14:19:34.911Z,7.03
2024-02-02T14:22:08.920Z,11.55
2024-02-02T14:24:51.187Z,9.13
2024-02-02T14:27:18.317Z,8.40
2024-02-02T14:29:45.771Z,10.07
2024-02-02T14:32:12.852Z,9.55
2024-02-02T14:34:39.944Z,8.52
2024-02-02T14:37:09.626Z,10.10
2024-02-02T14:39:36.646Z,11.85
2024-02-02T14:42:03.989Z,8.15
2024-02-02T14:44:30.968Z,9.40
2024-02-02T14:46:58.266Z,8.35
2024-02-02T14:49:27.079Z,9.38
2024-02-02T14:51:55.226Z,8.23
2024-02-02T14:54:22.668Z,8.50
2024-02-02T14:56:49.668Z,11.23
2024-02-02T14:59:22.328Z,8.15
2024-02-02T15:01:49.666Z,8.38
2024-02-02T15:04:17.348Z,7.35
2024-02-02T15:06:45.023Z,6.57
2024-02-02T15:09:16.662Z,7.53
2024-02-02T15:11:45.280Z,9.55
2024-02-02T15:14:12.781Z,6.13
2024-02-02T15:16:39.708Z,6.72
2024-02-02T15:19:06.737Z,7.28
2024-02-02T15:21:34.289Z,8.20
2024-02-02T15:24:01.858Z,7.68
2024-02-02T15:26:29.136Z,6.75
2024-02-02T15:28:56.099Z,9.05
2024-02-02T15:31:23.644Z,7.30
2024-02-02T15:33:50.686Z,7.75
2024-02-02T15:36:17.776Z,6.82
2024-02-02T15:39:05.717Z,6.68
2024-02-02T15:41:31.471Z,6.03
2024-02-02T15:43:58.305Z,5.90
2024-02-02T15:46:25.378Z,5.75
2024-02-02T15:48:53.156Z,8.32
2024-02-02T15:51:21.065Z,7.20
2024-02-02T15:53:47.995Z,6.85
2024-02-02T15:56:18.939Z,7.95
2024-02-02T15:58:45.837Z,5.88
2024-02-02T16:01:13.484Z,7.55
2024-02-02T16:03:41.604Z,5.63
2024-02-02T16:06:10.310Z,6.70
2024-02-02T16:08:38.064Z,9.52
2024-02-02T16:11:05.888Z,7.78
2024-02-02T16:13:33.025Z,4.80
2024-02-02T16:16:00.506Z,5.03
2024-02-02T16:18:27.754Z,5.82
2024-02-02T16:20:54.869Z,8.23
2024-02-02T16:23:21.829Z,6.47
2024-02-02T16:25:48.749Z,5.22
2024-02-02T16:28:15.722Z,7.80
2024-02-02T16:30:43.626Z,8.05
2024-02-02T16:33:10.832Z,4.25
2024-02-02T16:35:38.036Z,5.88
2024-02-02T16:38:05.481Z,6.97
2024-02-02T16:40:32.417Z,7.25
2024-02-02T16:42:59.488Z,6.32
2024-02-02T16:45:26.442Z,5.57
2024-02-02T16:47:54.527Z,6.13
2024-02-02T16:50:21.976Z,6.18
2024-02-02T16:52:48.742Z,4.47
2024-02-02T16:55:15.771Z,4.97
2024-02-02T16:57:42.680Z,5.15
2024-02-02T17:00:10.043Z,3.75
2024-02-02T17:02:37.175Z,4.93
2024-02-02T17:05:05.146Z,6.70
2024-02-02T17:07:32.098Z,5.47
2024-02-02T17:09:59.300Z,3.50
2024-02-02T17:12:26.763Z,6.97
2024-02-02T17:14:53.773Z,5.03
2024-02-02T17:17:20.750Z,5.38
2024-02-02T17:19:47.702Z,6.15
2024-02-02T17:22:14.562Z,7.68
2024-02-02T17:24:41.723Z,4.53
2024-02-02T17:27:08.675Z,5.88
2024-02-02T17:29:39.764Z,4.40
2024-02-02T17:32:07.564Z,4.05
2024-02-02T17:34:34.641Z,5.43
2024-02-02T17:37:01.564Z,4.93
2024-02-02T17:39:28.439Z,6.18
2024-02-02T17:41:55.376Z,6.07
2024-02-02T17:44:24.770Z,5.15
2024-02-02T17:46:53.771Z,6.45
2024-02-02T17:49:20.863Z,5.53
2024-02-02T17:51:47.900Z,4.25
2024-02-02T17:54:14.850Z,3.63
2024-02-02T17:56:41.772Z,5.32
2024-02-02T17:59:10.363Z,3.80
2024-02-02T18:01:38.079Z,5.50
2024-02-02T18:04:06.875Z,6.63
2024-02-02T18:06:34.654Z,4.82
2024-02-02T18:09:01.695Z,5.82
2024-02-02T18:11:28.708Z,5.15
2024-02-02T18:13:55.623Z,5.55
2024-02-02T18:16:22.462Z,4.20
2024-02-02T18:18:49.612Z,4.75
2024-02-02T18:21:16.794Z,7.38
2024-02-02T18:23:43.933Z,4.57
2024-02-02T18:26:11.095Z,4.25
2024-02-02T18:28:37.990Z,3.72
2024-02-02T18:31:05.355Z,4.80
2024-02-02T18:33:32.377Z,7.80
2024-02-02T18:35:59.338Z,5.38
2024-02-02T18:38:26.134Z,3.50
2024-02-02T18:40:53.019Z,3.70
2024-02-02T18:43:20.018Z,2.83
2024-02-02T18:45:47.313Z,4.53
2024-02-02T18:48:14.442Z,3.50
2024-02-02T18:50:41.408Z,4.03
2024-02-02T18:53:08.720Z,3.28
2024-02-02T18:55:35.659Z,5.18
2024-02-02T18:58:02.530Z,5.80
2024-02-02T19:00:29.424Z,4.47
2024-02-02T19:02:56.809Z,4.53
2024-02-02T19:05:23.793Z,4.90
2024-02-02T19:07:50.697Z,3.20
2024-02-02T19:10:19.889Z,4.30
2024-02-02T19:12:47.038Z,4.72
2024-02-02T19:15:14.057Z,4.82
2024-02-02T19:17:42.538Z,5.10
2024-02-02T19:20:11.577Z,4.70
2024-02-02T19:22:39.724Z,4.57
2024-02-02T19:25:07.224Z,4.32
2024-02-02T19:27:34.278Z,6.88
2024-02-02T19:30:01.292Z,4.35
2024-02-02T19:32:28.465Z,4.85
2024-02-02T19:34:55.565Z,5.22
2024-02-02T19:37:22.623Z,4.68
2024-02-02T19:39:49.634Z,5.40
2024-02-02T19:42:16.581Z,4.90
2024-02-02T19:44:44.011Z,5.63
2024-02-02T19:47:12.427Z,5.50
2024-02-02T19:49:39.642Z,4.95
2024-02-02T19:52:06.838Z,5.13
2024-02-02T19:54:36.757Z,4.32
2024-02-02T19:57:06.860Z,4.65
2024-02-02T19:59:33.873Z,4.95
2024-02-02T20:02:02.958Z,5.45
2024-02-02T20:04:30.935Z,5.13
2024-02-02T20:06:58.445Z,5.25
2024-02-02T20:09:25.371Z,4.97
2024-02-02T20:11:52.303Z,6.20
2024-02-02T20:14:19.322Z,3.50
2024-02-02T20:16:46.259Z,6.07
2024-02-02T20:19:13.384Z,3.05
2024-02-02T20:21:40.739Z,4.22
2024-02-02T20:24:08.125Z,4.63
2024-02-02T20:26:35.019Z,3.40
2024-02-02T20:29:01.868Z,3.28
2024-02-02T20:31:29.020Z,4.22
2024-02-02T20:33:57.796Z,4.47
2024-02-02T20:36:28.554Z,3.47
2024-02-02T20:38:55.738Z,3.35
2024-02-02T20:41:26.726Z,6.00
2024-02-02T20:43:58.740Z,4.85
2024-02-02T20:46:25.872Z,4.15
2024-02-02T20:48:53.062Z,4.63
2024-02-02T20:51:20.184Z,5.57
2024-02-02T20:53:47.011Z,3.72
2024-02-02T20:56:14.814Z,5.00
2024-02-02T20:58:41.736Z,3.30
2024-02-02T21:01:08.719Z,6.05
2024-02-02T21:03:36.490Z,3.13
2024-02-02T21:06:03.769Z,5.50
2024-02-02T21:08:30.876Z,4.47
2024-02-02T21:10:57.880Z,4.65
2024-02-02T21:13:24.817Z,3.50
2024-02-02T21:15:53.542Z,4.43
2024-02-02T21:18:21.475Z,4.00
2024-02-02T21:20:51.162Z,3.67
2024-02-02T21:23:19.188Z,4.15
2024-02-02T21:25:46.930Z,5.35
2024-02-02T21:28:14.825Z,4.35
2024-02-02T21:30:44.934Z,5.05
2024-02-02T21:33:12.807Z,4.55
2024-02-02T21:35:40.934Z,4.13
2024-02-02T21:38:07.863Z,4.50
2024-02-02T21:40:34.779Z,5.40
2024-02-02T21:43:01.633Z,4.45
2024-02-02T21:45:29.955Z,4.95
2024-02-02T21:47:57.851Z,5.53
2024-02-02T21:50:25.331Z,4.30
2024-02-02T21:52:52.461Z,5.32
2024-02-02T21:55:19.390Z,5.22
2024-02-02T21:57:46.325Z,3.45
2024-02-02T22:00:14.381Z,4.50
2024-02-02T22:02:41.593Z,4.55
2024-02-02T22:05:08.620Z,4.57
2024-02-02T22:07:39.076Z,5.25
2024-02-02T22:10:08.181Z,4.78
2024-02-02T22:12:35.275Z,4.85
2024-02-02T22:15:02.353Z,6.45
2024-02-02T22:17:29.471Z,4.95
2024-02-02T22:19:56.472Z,5.85
2024-02-02T22:22:23.363Z,5.57
2024-02-02T22:24:50.261Z,5.40
2024-02-02T22:27:22.292Z,4.15
2024-02-02T22:29:50.903Z,4.68
2024-02-02T22:32:21.580Z,7.40
2024-02-02T22:34:49.494Z,7.20
2024-02-02T22:37:16.416Z,5.78
2024-02-02T22:39:43.478Z,5.85
2024-02-02T22:42:10.596Z,5.45
2024-02-02T22:44:37.516Z,6.57
2024-02-02T22:47:04.596Z,7.03
2024-02-02T22:49:33.105Z,6.53
2024-02-02T22:52:00.224Z,5.22
2024-02-02T22:54:27.088Z,5.90
2024-02-02T22:56:54.055Z,7.53
2024-02-02T22:59:20.921Z,7.75
2024-02-02T23:01:47.948Z,7.07
2024-02-02T23:04:14.970Z,6.20
2024-02-02T23:06:42.176Z,6.78
2024-02-02T23:09:09.130Z,7.53
2024-02-02T23:11:36.129Z,6.30
2024-02-02T23:14:03.017Z,6.10
2024-02-02T23:16:29.935Z,6.78
2024-02-02T23:18:56.881Z,7.07
2024-02-02T23:21:23.818Z,8.55
2024-02-02T23:23:50.637Z,6.90
2024-02-02T23:26:17.521Z,8.13
2024-02-02T23:28:44.457Z,7.80
2024-02-02T23:31:11.230Z,7.53
2024-02-02T23:33:38.124Z,8.60
2024-02-02T23:36:05.380Z,7.55
2024-02-02T23:38:32.325Z,7.85
2024-02-02T23:41:00.397Z,8.07
2024-02-02T23:43:27.366Z,13.77
2024-02-02T23:45:54.392Z,7.30
2024-02-02T23:48:21.696Z,8.05
2024-02-02T23:50:48.751Z,10.15
2024-02-02T23:53:15.742Z,8.13
2024-02-02T23:55:42.561Z,8.57
2024-02-02T23:58:09.582Z,8.35
